sensor_id;sensor_type;location;lat;lon;timestamp;pressure;altitude;pressure_sealevel;temperature;humidity
57900;BME280;60605;53.716;19.940;2023-05-31T00:03:15;101245.23;;;6.60;82.55
57900;BME280;60605;53.716;19.940;2023-05-31T00:08:19;101241.56;;;6.51;83.37
57900;BME280;60605;53.716;19.940;2023-05-31T00:13:22;101238.51;;;6.46;84.28
57900;BME280;60605;53.716;19.940;2023-05-31T00:18:25;101237.55;;;6.42;85.32
57900;BME280;60605;53.716;19.940;2023-05-31T00:23:30;101239.17;;;6.39;86.39
57900;BME280;60605;53.716;19.940;2023-05-31T00:28:33;101238.91;;;6.36;86.07
57900;BME280;60605;53.716;19.940;2023-05-31T00:33:37;101237.06;;;6.26;85.71
57900;BME280;60605;53.716;19.940;2023-05-31T00:38:40;101238.73;;;6.17;85.91
57900;BME280;60605;53.716;19.940;2023-05-31T00:43:43;101238.20;;;6.09;85.99
57900;BME280;60605;53.716;19.940;2023-05-31T00:48:46;101243.55;;;6.00;86.17
57900;BME280;60605;53.716;19.940;2023-05-31T00:53:50;101246.69;;;5.90;86.22
57900;BME280;60605;53.716;19.940;2023-05-31T00:58:56;101249.86;;;5.80;86.10
57900;BME280;60605;53.716;19.940;2023-05-31T01:04:00;101253.37;;;5.66;86.31
57900;BME280;60605;53.716;19.940;2023-05-31T01:09:06;101250.94;;;5.55;87.40
57900;BME280;60605;53.716;19.940;2023-05-31T01:14:24;101250.77;;;5.46;88.34
57900;BME280;60605;53.716;19.940;2023-05-31T01:19:45;101250.85;;;5.39;88.74
57900;BME280;60605;53.716;19.940;2023-05-31T01:29:58;101257.30;;;5.21;88.84
57900;BME280;60605;53.716;19.940;2023-05-31T01:35:02;101260.95;;;5.11;89.13
57900;BME280;60605;53.716;19.940;2023-05-31T01:40:06;101263.30;;;5.01;89.82
57900;BME280;60605;53.716;19.940;2023-05-31T01:45:11;101269.83;;;4.93;90.37
57900;BME280;60605;53.716;19.940;2023-05-31T01:50:18;101270.91;;;4.87;91.23
57900;BME280;60605;53.716;19.940;2023-05-31T01:55:21;101265.70;;;4.85;92.06
57900;BME280;60605;53.716;19.940;2023-05-31T02:00:25;101268.19;;;4.82;92.49
57900;BME280;60605;53.716;19.940;2023-05-31T02:05:30;101273.02;;;4.78;92.62
57900;BME280;60605;53.716;19.940;2023-05-31T02:10:33;101270.56;;;4.75;93.00
57900;BME280;60605;53.716;19.940;2023-05-31T02:15:36;101268.16;;;4.74;93.75
57900;BME280;60605;53.716;19.940;2023-05-31T02:20:44;101268.56;;;4.73;94.00
57900;BME280;60605;53.716;19.940;2023-05-31T02:25:49;101269.17;;;4.72;94.05
57900;BME280;60605;53.716;19.940;2023-05-31T02:30:56;101270.21;;;4.72;94.40
57900;BME280;60605;53.716;19.940;2023-05-31T02:35:59;101275.65;;;4.73;94.36
57900;BME280;60605;53.716;19.940;2023-05-31T02:41:03;101277.39;;;4.73;94.75
57900;BME280;60605;53.716;19.940;2023-05-31T02:46:08;101271.61;;;4.81;96.37
57900;BME280;60605;53.716;19.940;2023-05-31T02:51:12;101268.73;;;4.94;97.06
57900;BME280;60605;53.716;19.940;2023-05-31T02:56:15;101268.73;;;5.05;97.01
57900;BME280;60605;53.716;19.940;2023-05-31T03:01:19;101269.89;;;5.15;96.39
57900;BME280;60605;53.716;19.940;2023-05-31T03:06:23;101277.73;;;5.22;95.99
57900;BME280;60605;53.716;19.940;2023-05-31T03:11:26;101279.65;;;5.37;96.69
57900;BME280;60605;53.716;19.940;2023-05-31T03:16:30;101278.98;;;5.54;97.29
57900;BME280;60605;53.716;19.940;2023-05-31T03:21:33;101284.02;;;5.72;97.39
57900;BME280;60605;53.716;19.940;2023-05-31T03:26:37;101280.73;;;5.96;97.56
57900;BME280;60605;53.716;19.940;2023-05-31T03:31:40;101276.30;;;6.41;98.17
57900;BME280;60605;53.716;19.940;2023-05-31T03:36:44;101272.39;;;7.26;98.87
57900;BME280;60605;53.716;19.940;2023-05-31T03:41:47;101272.85;;;8.58;98.54
57900;BME280;60605;53.716;19.940;2023-05-31T03:46:51;101266.27;;;10.27;96.55
57900;BME280;60605;53.716;19.940;2023-05-31T03:51:54;101269.10;;;12.10;90.62
57900;BME280;60605;53.716;19.940;2023-05-31T03:56:58;101268.88;;;13.89;85.46
57900;BME280;60605;53.716;19.940;2023-05-31T04:02:02;101276.19;;;15.71;78.53
57900;BME280;60605;53.716;19.940;2023-05-31T04:07:07;101277.38;;;17.29;72.62
57900;BME280;60605;53.716;19.940;2023-05-31T04:12:10;101274.48;;;18.71;67.62
57900;BME280;60605;53.716;19.940;2023-05-31T04:17:13;101272.91;;;19.82;62.34
57900;BME280;60605;53.716;19.940;2023-05-31T04:22:17;101274.11;;;20.59;57.79
57900;BME280;60605;53.716;19.940;2023-05-31T04:27:21;101269.48;;;21.25;54.93
57900;BME280;60605;53.716;19.940;2023-05-31T04:32:25;101267.52;;;21.86;53.12
57900;BME280;60605;53.716;19.940;2023-05-31T04:37:34;101261.73;;;22.43;51.21
57900;BME280;60605;53.716;19.940;2023-05-31T04:42:40;101262.50;;;23.15;49.75
57900;BME280;60605;53.716;19.940;2023-05-31T04:47:48;101252.02;;;23.97;48.39
57900;BME280;60605;53.716;19.940;2023-05-31T04:52:53;101248.36;;;24.82;46.11
57900;BME280;60605;53.716;19.940;2023-05-31T04:57:56;101244.45;;;25.47;43.90
57900;BME280;60605;53.716;19.940;2023-05-31T05:03:00;101244.23;;;25.96;42.65
57900;BME280;60605;53.716;19.940;2023-05-31T05:08:05;101247.17;;;26.43;41.26
57900;BME280;60605;53.716;19.940;2023-05-31T05:13:08;101247.52;;;26.97;40.16
57900;BME280;60605;53.716;19.940;2023-05-31T05:18:11;101244.61;;;27.45;37.96
57900;BME280;60605;53.716;19.940;2023-05-31T05:23:16;101241.35;;;27.93;36.89
57900;BME280;60605;53.716;19.940;2023-05-31T05:28:19;101239.78;;;28.45;36.59
57900;BME280;60605;53.716;19.940;2023-05-31T05:33:23;101235.02;;;29.08;35.43
57900;BME280;60605;53.716;19.940;2023-05-31T05:38:26;101230.90;;;29.43;34.02
57900;BME280;60605;53.716;19.940;2023-05-31T05:43:30;101231.05;;;29.66;33.52
57900;BME280;60605;53.716;19.940;2023-05-31T05:48:33;101232.45;;;29.97;33.43
57900;BME280;60605;53.716;19.940;2023-05-31T05:53:37;101230.09;;;30.30;33.03
57900;BME280;60605;53.716;19.940;2023-05-31T05:58:40;101226.48;;;30.84;31.94
57900;BME280;60605;53.716;19.940;2023-05-31T06:03:46;101223.45;;;31.80;30.34
57900;BME280;60605;53.716;19.940;2023-05-31T06:08:50;101225.65;;;32.49;28.70
57900;BME280;60605;53.716;19.940;2023-05-31T06:13:54;101222.64;;;32.81;27.04
57900;BME280;60605;53.716;19.940;2023-05-31T06:19:00;101215.02;;;33.09;27.04
57900;BME280;60605;53.716;19.940;2023-05-31T06:24:04;101205.67;;;33.44;25.37
57900;BME280;60605;53.716;19.940;2023-05-31T06:29:08;101205.27;;;33.61;25.62
57900;BME280;60605;53.716;19.940;2023-05-31T06:34:11;101206.98;;;33.89;24.73
57900;BME280;60605;53.716;19.940;2023-05-31T06:39:15;101202.15;;;34.07;23.58
57900;BME280;60605;53.716;19.940;2023-05-31T06:44:18;101200.92;;;34.53;23.17
57900;BME280;60605;53.716;19.940;2023-05-31T06:49:22;101201.89;;;34.96;22.81
57900;BME280;60605;53.716;19.940;2023-05-31T06:54:27;101194.66;;;35.28;21.99
57900;BME280;60605;53.716;19.940;2023-05-31T06:59:31;101183.81;;;35.49;21.51
57900;BME280;60605;53.716;19.940;2023-05-31T07:04:34;101180.64;;;35.64;21.67
57900;BME280;60605;53.716;19.940;2023-05-31T07:09:38;101184.16;;;35.90;20.29
57900;BME280;60605;53.716;19.940;2023-05-31T07:14:41;101182.38;;;36.04;19.98
57900;BME280;60605;53.716;19.940;2023-05-31T07:19:48;101177.61;;;36.39;19.73
57900;BME280;60605;53.716;19.940;2023-05-31T07:24:52;101174.61;;;36.90;19.20
57900;BME280;60605;53.716;19.940;2023-05-31T07:29:55;101177.71;;;37.20;18.50
57900;BME280;60605;53.716;19.940;2023-05-31T07:34:59;101176.72;;;37.19;19.36
57900;BME280;60605;53.716;19.940;2023-05-31T07:40:07;101168.83;;;37.43;19.29
57900;BME280;60605;53.716;19.940;2023-05-31T07:45:10;101163.48;;;37.45;19.32
57900;BME280;60605;53.716;19.940;2023-05-31T07:50:14;101151.89;;;37.45;19.70
57900;BME280;60605;53.716;19.940;2023-05-31T07:55:18;101149.61;;;37.79;19.71
57900;BME280;60605;53.716;19.940;2023-05-31T08:00:23;101149.50;;;38.31;19.42
57900;BME280;60605;53.716;19.940;2023-05-31T08:05:30;101146.84;;;38.69;18.80
57900;BME280;60605;53.716;19.940;2023-05-31T08:10:33;101138.64;;;38.88;19.12
57900;BME280;60605;53.716;19.940;2023-05-31T08:15:37;101135.59;;;39.02;18.89
57900;BME280;60605;53.716;19.940;2023-05-31T08:20:40;101140.77;;;39.03;19.02
57900;BME280;60605;53.716;19.940;2023-05-31T08:25:44;101138.77;;;39.07;19.09
57900;BME280;60605;53.716;19.940;2023-05-31T08:30:47;101134.10;;;39.47;19.48
57900;BME280;60605;53.716;19.940;2023-05-31T08:35:51;101133.33;;;39.95;19.22
57900;BME280;60605;53.716;19.940;2023-05-31T08:41:01;101135.08;;;40.10;18.48
57900;BME280;60605;53.716;19.940;2023-05-31T08:46:05;101122.38;;;39.72;18.49
57900;BME280;60605;53.716;19.940;2023-05-31T08:51:11;101121.97;;;39.27;19.40
57900;BME280;60605;53.716;19.940;2023-05-31T08:56:18;101114.52;;;39.33;19.19
57900;BME280;60605;53.716;19.940;2023-05-31T09:01:24;101112.34;;;39.58;19.05
57900;BME280;60605;53.716;19.940;2023-05-31T09:06:31;101108.88;;;39.19;18.42
57900;BME280;60605;53.716;19.940;2023-05-31T09:11:35;101113.04;;;38.97;18.67
57900;BME280;60605;53.716;19.940;2023-05-31T09:16:47;101105.95;;;38.26;18.48
57900;BME280;60605;53.716;19.940;2023-05-31T09:21:53;101099.89;;;35.50;19.83
57900;BME280;60605;53.716;19.940;2023-05-31T09:26:57;101093.73;;;34.60;21.35
57900;BME280;60605;53.716;19.940;2023-05-31T09:32:08;101094.09;;;35.79;21.45
57900;BME280;60605;53.716;19.940;2023-05-31T09:37:22;101090.02;;;35.82;21.17
57900;BME280;60605;53.716;19.940;2023-05-31T09:42:27;101093.21;;;36.54;20.60
57900;BME280;60605;53.716;19.940;2023-05-31T09:47:31;101086.40;;;36.54;20.14
57900;BME280;60605;53.716;19.940;2023-05-31T09:52:35;101083.33;;;36.34;20.58
57900;BME280;60605;53.716;19.940;2023-05-31T09:57:43;101075.56;;;35.38;21.48
57900;BME280;60605;53.716;19.940;2023-05-31T10:02:52;101069.10;;;34.33;22.84
57900;BME280;60605;53.716;19.940;2023-05-31T10:07:57;101063.42;;;34.17;23.37
57900;BME280;60605;53.716;19.940;2023-05-31T10:13:01;101054.80;;;33.36;23.54
57900;BME280;60605;53.716;19.940;2023-05-31T10:18:10;101047.90;;;31.98;24.50
57900;BME280;60605;53.716;19.940;2023-05-31T10:23:22;101032.94;;;30.51;26.17
57900;BME280;60605;53.716;19.940;2023-05-31T10:28:28;101024.33;;;29.39;27.81
57900;BME280;60605;53.716;19.940;2023-05-31T10:33:34;101022.95;;;28.74;29.04
57900;BME280;60605;53.716;19.940;2023-05-31T10:38:57;101016.52;;;28.12;29.39
57900;BME280;60605;53.716;19.940;2023-05-31T10:44:09;101008.94;;;27.57;29.31
57900;BME280;60605;53.716;19.940;2023-05-31T10:49:13;101003.23;;;27.24;30.04
57900;BME280;60605;53.716;19.940;2023-05-31T10:54:26;101000.60;;;26.92;30.50
57900;BME280;60605;53.716;19.940;2023-05-31T10:59:44;100991.45;;;26.73;31.04
57900;BME280;60605;53.716;19.940;2023-05-31T11:04:47;100982.32;;;26.55;30.58
57900;BME280;60605;53.716;19.940;2023-05-31T11:09:56;100977.74;;;26.22;31.28
57900;BME280;60605;53.716;19.940;2023-05-31T11:15:03;100969.77;;;26.03;32.33
57900;BME280;60605;53.716;19.940;2023-05-31T11:20:15;100962.21;;;25.96;33.52
57900;BME280;60605;53.716;19.940;2023-05-31T11:25:20;100963.05;;;26.06;33.26
57900;BME280;60605;53.716;19.940;2023-05-31T11:30:34;100949.04;;;25.98;31.64
57900;BME280;60605;53.716;19.940;2023-05-31T11:35:38;100937.31;;;25.85;32.61
57900;BME280;60605;53.716;19.940;2023-05-31T11:40:41;100933.85;;;25.91;33.57
57900;BME280;60605;53.716;19.940;2023-05-31T11:45:46;100927.91;;;25.89;33.34
57900;BME280;60605;53.716;19.940;2023-05-31T11:50:54;100924.35;;;25.87;33.08
57900;BME280;60605;53.716;19.940;2023-05-31T11:55:59;100911.17;;;25.81;33.36
57900;BME280;60605;53.716;19.940;2023-05-31T12:01:02;100901.92;;;25.84;33.30
57900;BME280;60605;53.716;19.940;2023-05-31T12:06:06;100888.54;;;25.90;33.48
57900;BME280;60605;53.716;19.940;2023-05-31T12:11:11;100882.46;;;25.88;32.98
57900;BME280;60605;53.716;19.940;2023-05-31T12:16:15;100880.48;;;25.84;32.88
57900;BME280;60605;53.716;19.940;2023-05-31T12:21:18;100878.48;;;25.85;32.84
57900;BME280;60605;53.716;19.940;2023-05-31T12:26:22;100871.57;;;25.74;32.00
57900;BME280;60605;53.716;19.940;2023-05-31T12:31:26;100859.48;;;25.64;32.15
57900;BME280;60605;53.716;19.940;2023-05-31T12:36:46;100857.81;;;25.65;32.20
57900;BME280;60605;53.716;19.940;2023-05-31T12:41:50;100855.54;;;25.68;32.44
57900;BME280;60605;53.716;19.940;2023-05-31T12:47:08;100848.65;;;25.65;31.56
57900;BME280;60605;53.716;19.940;2023-05-31T12:52:14;100846.20;;;25.68;32.17
57900;BME280;60605;53.716;19.940;2023-05-31T12:57:18;100844.14;;;25.71;31.92
57900;BME280;60605;53.716;19.940;2023-05-31T13:02:21;100837.55;;;25.72;31.95
57900;BME280;60605;53.716;19.940;2023-05-31T13:07:25;100829.32;;;25.69;31.30
57900;BME280;60605;53.716;19.940;2023-05-31T13:12:28;100826.15;;;25.70;31.74
57900;BME280;60605;53.716;19.940;2023-05-31T13:17:32;100816.44;;;25.66;31.49
57900;BME280;60605;53.716;19.940;2023-05-31T13:22:36;100807.80;;;25.59;31.16
57900;BME280;60605;53.716;19.940;2023-05-31T13:27:39;100801.21;;;25.55;31.07
57900;BME280;60605;53.716;19.940;2023-05-31T13:32:42;100797.31;;;25.53;31.43
57900;BME280;60605;53.716;19.940;2023-05-31T13:37:46;100790.40;;;25.50;32.36
57900;BME280;60605;53.716;19.940;2023-05-31T13:42:49;100785.81;;;25.51;32.75
57900;BME280;60605;53.716;19.940;2023-05-31T13:47:54;100774.59;;;25.46;32.64
57900;BME280;60605;53.716;19.940;2023-05-31T13:52:58;100763.87;;;25.43;33.16
57900;BME280;60605;53.716;19.940;2023-05-31T13:58:06;100754.41;;;25.41;33.01
57900;BME280;60605;53.716;19.940;2023-05-31T14:03:10;100743.86;;;25.36;32.81
57900;BME280;60605;53.716;19.940;2023-05-31T14:08:14;100739.28;;;25.27;32.41
57900;BME280;60605;53.716;19.940;2023-05-31T14:13:19;100733.90;;;25.15;32.42
57900;BME280;60605;53.716;19.940;2023-05-31T14:18:23;100731.90;;;25.09;32.98
57900;BME280;60605;53.716;19.940;2023-05-31T14:23:26;100725.98;;;25.05;32.55
57900;BME280;60605;53.716;19.940;2023-05-31T14:28:29;100718.36;;;25.03;32.99
57900;BME280;60605;53.716;19.940;2023-05-31T14:33:38;100711.84;;;25.02;33.10
57900;BME280;60605;53.716;19.940;2023-05-31T14:38:43;100703.61;;;24.99;33.08
57900;BME280;60605;53.716;19.940;2023-05-31T14:43:47;100695.03;;;24.92;33.15
57900;BME280;60605;53.716;19.940;2023-05-31T14:48:54;100688.27;;;24.90;33.68
57900;BME280;60605;53.716;19.940;2023-05-31T14:53:58;100683.67;;;24.88;33.79
57900;BME280;60605;53.716;19.940;2023-05-31T14:59:04;100683.48;;;24.85;33.88
57900;BME280;60605;53.716;19.940;2023-05-31T15:04:12;100674.02;;;24.78;33.55
57900;BME280;60605;53.716;19.940;2023-05-31T15:09:16;100663.95;;;24.76;33.56
57900;BME280;60605;53.716;19.940;2023-05-31T15:14:20;100659.61;;;24.72;34.05
57900;BME280;60605;53.716;19.940;2023-05-31T15:19:23;100648.31;;;24.62;34.36
57900;BME280;60605;53.716;19.940;2023-05-31T15:24:27;100639.08;;;24.51;34.34
57900;BME280;60605;53.716;19.940;2023-05-31T15:29:30;100632.43;;;24.41;34.53
57900;BME280;60605;53.716;19.940;2023-05-31T15:34:34;100625.85;;;24.36;34.44
57900;BME280;60605;53.716;19.940;2023-05-31T15:39:38;100620.19;;;24.32;34.80
57900;BME280;60605;53.716;19.940;2023-05-31T15:44:42;100612.45;;;24.18;34.99
57900;BME280;60605;53.716;19.940;2023-05-31T15:49:46;100612.80;;;24.05;35.54
57900;BME280;60605;53.716;19.940;2023-05-31T15:54:51;100604.70;;;23.95;35.65
57900;BME280;60605;53.716;19.940;2023-05-31T15:59:54;100603.80;;;23.89;36.09
57900;BME280;60605;53.716;19.940;2023-05-31T16:04:58;100606.26;;;23.89;36.24
57900;BME280;60605;53.716;19.940;2023-05-31T16:10:01;100598.14;;;23.87;36.22
57900;BME280;60605;53.716;19.940;2023-05-31T16:15:06;100589.20;;;23.82;36.31
57900;BME280;60605;53.716;19.940;2023-05-31T16:20:10;100584.97;;;23.76;36.46
57900;BME280;60605;53.716;19.940;2023-05-31T16:25:15;100578.09;;;23.68;36.75
57900;BME280;60605;53.716;19.940;2023-05-31T16:30:18;100573.40;;;23.59;36.86
57900;BME280;60605;53.716;19.940;2023-05-31T16:35:21;100564.30;;;23.52;36.88
57900;BME280;60605;53.716;19.940;2023-05-31T16:40:25;100556.04;;;23.44;36.82
57900;BME280;60605;53.716;19.940;2023-05-31T16:45:28;100555.34;;;23.35;36.78
57900;BME280;60605;53.716;19.940;2023-05-31T16:50:31;100548.70;;;23.30;37.15
57900;BME280;60605;53.716;19.940;2023-05-31T16:55:35;100548.34;;;23.22;37.44
57900;BME280;60605;53.716;19.940;2023-05-31T17:00:39;100545.00;;;23.13;37.61
57900;BME280;60605;53.716;19.940;2023-05-31T17:05:45;100538.71;;;23.03;37.72
57900;BME280;60605;53.716;19.940;2023-05-31T17:10:50;100533.50;;;22.90;38.27
57900;BME280;60605;53.716;19.940;2023-05-31T17:15:54;100523.70;;;22.74;38.44
57900;BME280;60605;53.716;19.940;2023-05-31T17:20:57;100515.98;;;22.57;38.87
57900;BME280;60605;53.716;19.940;2023-05-31T17:26:04;100510.92;;;22.40;39.37
57900;BME280;60605;53.716;19.940;2023-05-31T17:31:08;100506.40;;;22.24;39.80
57900;BME280;60605;53.716;19.940;2023-05-31T17:36:11;100498.60;;;22.11;40.34
57900;BME280;60605;53.716;19.940;2023-05-31T17:41:15;100487.13;;;21.95;40.48
57900;BME280;60605;53.716;19.940;2023-05-31T17:46:21;100479.26;;;21.79;40.75
57900;BME280;60605;53.716;19.940;2023-05-31T17:51:25;100474.63;;;21.62;41.10
57900;BME280;60605;53.716;19.940;2023-05-31T17:56:29;100471.52;;;21.43;41.30
57900;BME280;60605;53.716;19.940;2023-05-31T18:25:09;100451.25;;;20.36;44.01
57900;BME280;60605;53.716;19.940;2023-05-31T18:30:13;100449.73;;;20.08;44.82
57900;BME280;60605;53.716;19.940;2023-05-31T18:35:15;100440.24;;;19.81;45.90
57900;BME280;60605;53.716;19.940;2023-05-31T18:40:20;100437.64;;;19.54;46.62
57900;BME280;60605;53.716;19.940;2023-05-31T18:45:22;100432.90;;;19.26;47.33
57900;BME280;60605;53.716;19.940;2023-05-31T18:50:26;100427.10;;;18.97;48.11
57900;BME280;60605;53.716;19.940;2023-05-31T18:55:27;100423.95;;;18.70;48.53
57900;BME280;60605;53.716;19.940;2023-05-31T19:00:29;100419.43;;;18.41;49.58
57900;BME280;60605;53.716;19.940;2023-05-31T19:05:32;100421.69;;;18.11;50.59
57900;BME280;60605;53.716;19.940;2023-05-31T19:10:34;100418.88;;;17.83;51.36
57900;BME280;60605;53.716;19.940;2023-05-31T19:15:37;100416.77;;;17.56;52.17
57900;BME280;60605;53.716;19.940;2023-05-31T19:20:40;100410.86;;;17.30;52.88
57900;BME280;60605;53.716;19.940;2023-05-31T19:25:48;100406.48;;;17.04;53.52
57900;BME280;60605;53.716;19.940;2023-05-31T19:30:50;100401.23;;;16.81;54.20
57900;BME280;60605;53.716;19.940;2023-05-31T19:35:55;100400.05;;;16.61;54.63
57900;BME280;60605;53.716;19.940;2023-05-31T19:40:57;100404.18;;;16.42;55.35
57900;BME280;60605;53.716;19.940;2023-05-31T19:46:01;100406.45;;;16.24;55.95
57900;BME280;60605;53.716;19.940;2023-05-31T19:51:03;100405.52;;;16.06;56.14
57900;BME280;60605;53.716;19.940;2023-05-31T19:56:06;100405.11;;;15.90;56.51
57900;BME280;60605;53.716;19.940;2023-05-31T20:01:08;100400.02;;;15.72;57.08
57900;BME280;60605;53.716;19.940;2023-05-31T20:06:12;100391.78;;;15.54;57.75
57900;BME280;60605;53.716;19.940;2023-05-31T20:11:14;100384.81;;;15.36;58.26
57900;BME280;60605;53.716;19.940;2023-05-31T20:16:18;100380.92;;;15.17;58.50
57900;BME280;60605;53.716;19.940;2023-05-31T20:21:20;100371.88;;;15.01;59.13
57900;BME280;60605;53.716;19.940;2023-05-31T20:26:24;100374.16;;;14.86;59.64
57900;BME280;60605;53.716;19.940;2023-05-31T20:31:27;100370.96;;;14.72;60.27
57900;BME280;60605;53.716;19.940;2023-05-31T20:36:33;100368.98;;;14.58;60.82
57900;BME280;60605;53.716;19.940;2023-05-31T20:41:36;100362.96;;;14.45;61.44
57900;BME280;60605;53.716;19.940;2023-05-31T20:46:38;100358.32;;;14.34;61.75
57900;BME280;60605;53.716;19.940;2023-05-31T20:51:40;100354.52;;;14.24;62.10
57900;BME280;60605;53.716;19.940;2023-05-31T20:56:42;100350.85;;;14.17;62.02
57900;BME280;60605;53.716;19.940;2023-05-31T21:01:45;100347.41;;;14.11;62.01
57900;BME280;60605;53.716;19.940;2023-05-31T21:06:47;100347.69;;;14.05;61.73
57900;BME280;60605;53.716;19.940;2023-05-31T21:11:50;100346.92;;;14.01;61.86
57900;BME280;60605;53.716;19.940;2023-05-31T21:16:53;100346.23;;;13.98;62.21
57900;BME280;60605;53.716;19.940;2023-05-31T21:21:56;100346.96;;;13.93;61.91
57900;BME280;60605;53.716;19.940;2023-05-31T21:26:58;100350.20;;;13.87;61.60
57900;BME280;60605;53.716;19.940;2023-05-31T21:32:00;100351.79;;;13.81;61.60
57900;BME280;60605;53.716;19.940;2023-05-31T21:37:03;100346.23;;;13.76;61.82
57900;BME280;60605;53.716;19.940;2023-05-31T21:42:05;100352.85;;;13.70;62.28
57900;BME280;60605;53.716;19.940;2023-05-31T21:47:08;100356.59;;;13.61;62.42
57900;BME280;60605;53.716;19.940;2023-05-31T21:52:10;100354.39;;;13.50;62.92
57900;BME280;60605;53.716;19.940;2023-05-31T21:57:13;100353.23;;;13.36;64.11
57900;BME280;60605;53.716;19.940;2023-05-31T22:02:15;100351.97;;;13.20;65.19
57900;BME280;60605;53.716;19.940;2023-05-31T22:07:17;100357.09;;;13.03;66.18
57900;BME280;60605;53.716;19.940;2023-05-31T22:12:19;100356.23;;;12.86;67.04
57900;BME280;60605;53.716;19.940;2023-05-31T22:17:21;100348.30;;;12.68;67.41
57900;BME280;60605;53.716;19.940;2023-05-31T22:22:28;100343.79;;;12.51;67.91
57900;BME280;60605;53.716;19.940;2023-05-31T22:27:30;100344.01;;;12.33;68.51
57900;BME280;60605;53.716;19.940;2023-05-31T22:32:32;100344.20;;;12.19;69.29
57900;BME280;60605;53.716;19.940;2023-05-31T22:37:34;100343.27;;;12.07;69.75
57900;BME280;60605;53.716;19.940;2023-05-31T22:42:36;100342.19;;;11.95;70.32
57900;BME280;60605;53.716;19.940;2023-05-31T22:47:38;100342.94;;;11.84;70.53
57900;BME280;60605;53.716;19.940;2023-05-31T22:52:40;100340.00;;;11.72;71.14
57900;BME280;60605;53.716;19.940;2023-05-31T22:57:42;100336.70;;;11.58;71.84
57900;BME280;60605;53.716;19.940;2023-05-31T23:02:44;100345.89;;;11.44;72.72
57900;BME280;60605;53.716;19.940;2023-05-31T23:07:47;100345.51;;;11.29;73.46
57900;BME280;60605;53.716;19.940;2023-05-31T23:12:49;100346.77;;;11.15;74.02
57900;BME280;60605;53.716;19.940;2023-05-31T23:17:53;100343.23;;;11.02;74.43
57900;BME280;60605;53.716;19.940;2023-05-31T23:22:55;100344.05;;;10.90;75.24
57900;BME280;60605;53.716;19.940;2023-05-31T23:27:56;100342.98;;;10.82;75.98
57900;BME280;60605;53.716;19.940;2023-05-31T23:32:58;100344.92;;;10.75;76.51
57900;BME280;60605;53.716;19.940;2023-05-31T23:38:01;100341.64;;;10.68;76.86
57900;BME280;60605;53.716;19.940;2023-05-31T23:43:03;100336.06;;;10.61;77.05
57900;BME280;60605;53.716;19.940;2023-05-31T23:48:05;100330.21;;;10.54;77.51
57900;BME280;60605;53.716;19.940;2023-05-31T23:53:07;100324.63;;;10.45;77.63
57900;BME280;60605;53.716;19.940;2023-05-31T23:58:09;100323.23;;;10.41;77.90
